Time;durP1;ratioP1;P1;durP2;ratioP2;P2;SDS_P1;SDS_P2;PMS_P1;PMS_P2;Temp;Humidity;BMP_temperature;BMP_pressure;BME280_temperature;BME280_humidity;BME280_pressure;Samples;Min_cycle;Max_cycle;Signal;HPM_P1;HPM_P2
2024/03/04 00:02:12;;;;;;;1.63;1.20;;;;;;;;;;5066781;28;20044;-59
2024/03/04 00:04:40;;;;;;;3.28;1.13;;;;;;;;;;5064488;28;20045;-62
2024/03/04 00:07:09;;;;;;;3.10;1.40;;;;;;;;;;5069321;28;20040;-59
2024/03/04 00:09:37;;;;;;;4.15;1.52;;;;;;;;;;5064790;28;20054;-59
2024/03/04 00:12:07;;;;;;;1.50;1.20;;;;;;;;;;5053940;28;20052;-58
2024/03/04 00:14:36;;;;;;;2.38;1.15;;;;;;;;;;5057653;28;20059;-59
2024/03/04 00:17:05;;;;;;;1.25;1.10;;;;;;;;;;5058023;28;20138;-59
2024/03/04 00:19:33;;;;;;;2.95;1.48;;;;;;;;;;5062123;28;20048;-60
2024/03/04 00:22:01;;;;;;;2.08;1.48;;;;;;;;;;5079408;28;20067;-59
2024/03/04 00:24:32;;;;;;;3.22;1.55;;;;;;;;;;5078983;28;20055;-59
2024/03/04 00:27:00;;;;;;;1.70;1.23;;;;;;;;;;5065880;28;20052;-58
2024/03/04 00:29:30;;;;;;;1.38;1.10;;;;;;;;;;5078237;28;20078;-59
2024/03/04 00:31:58;;;;;;;4.30;1.52;;;;;;;;;;5075817;28;21129;-61
2024/03/04 00:34:27;;;;;;;1.35;1.08;;;;;;;;;;5080214;28;20056;-61
2024/03/04 00:36:56;;;;;;;1.23;1.08;;;;;;;;;;5077417;28;20421;-59
2024/03/04 00:39:24;;;;;;;2.38;1.30;;;;;;;;;;5068065;28;20486;-59
2024/03/04 00:41:53;;;;;;;3.75;1.58;;;;;;;;;;5075469;28;20499;-60
2024/03/04 00:44:21;;;;;;;1.20;1.10;;;;;;;;;;5083206;28;20089;-59
2024/03/04 00:46:51;;;;;;;2.35;1.52;;;;;;;;;;5078820;28;20053;-58
2024/03/04 00:49:19;;;;;;;2.40;1.30;;;;;;;;;;5071703;28;20067;-59
2024/03/04 00:51:47;;;;;;;2.00;1.30;;;;;;;;;;5076809;28;20063;-58
2024/03/04 00:54:16;;;;;;;2.72;1.52;;;;;;;;;;5073403;28;20044;-58
2024/03/04 00:56:44;;;;;;;1.40;1.30;;;;;;;;;;5069992;28;20076;-61
2024/03/04 00:59:13;;;;;;;3.42;1.45;;;;;;;;;;5072922;28;20075;-61
2024/03/04 01:01:41;;;;;;;1.30;1.20;;;;;;;;;;5076588;28;20143;-58
2024/03/04 01:04:11;;;;;;;2.75;1.67;;;;;;;;;;5069398;28;20472;-59
2024/03/04 01:06:40;;;;;;;1.92;1.63;;;;;;;;;;5070095;28;20521;-59
2024/03/04 01:09:10;;;;;;;1.67;1.35;;;;;;;;;;5068306;28;20145;-60
2024/03/04 01:11:39;;;;;;;1.58;1.02;;;;;;;;;;5072342;28;20056;-62
2024/03/04 01:14:07;;;;;;;1.90;1.23;;;;;;;;;;5080653;28;20120;-60
2024/03/04 01:16:36;;;;;;;2.40;1.60;;;;;;;;;;5080987;28;20076;-60
2024/03/04 01:19:04;;;;;;;1.45;1.35;;;;;;;;;;5073269;28;20055;-59
2024/03/04 01:21:34;;;;;;;1.92;1.40;;;;;;;;;;5079752;28;20074;-60
2024/03/04 01:24:03;;;;;;;1.73;1.33;;;;;;;;;;5077387;28;20040;-61
2024/03/04 01:26:32;;;;;;;2.03;1.40;;;;;;;;;;5073312;28;20049;-60
2024/03/04 01:29:01;;;;;;;2.13;1.25;;;;;;;;;;5076085;28;20161;-62
2024/03/04 01:31:29;;;;;;;2.47;1.17;;;;;;;;;;5084532;28;20056;-59
2024/03/04 01:33:58;;;;;;;2.28;1.45;;;;;;;;;;5077819;28;20252;-59
2024/03/04 01:36:26;;;;;;;1.55;1.45;;;;;;;;;;5072688;28;20059;-59
2024/03/04 01:38:56;;;;;;;1.38;1.27;;;;;;;;;;5067127;28;20056;-61
2024/03/04 01:41:24;;;;;;;1.20;1.08;;;;;;;;;;5076890;28;20052;-58
2024/03/04 01:43:53;;;;;;;2.47;1.50;;;;;;;;;;5079333;28;20144;-59
2024/03/04 01:46:21;;;;;;;1.75;1.30;;;;;;;;;;5074277;28;20044;-60
2024/03/04 01:48:50;;;;;;;4.65;1.25;;;;;;;;;;5077142;28;20040;-60
2024/03/04 01:51:19;;;;;;;2.28;1.25;;;;;;;;;;5072462;28;20078;-59
2024/03/04 01:53:48;;;;;;;2.00;1.33;;;;;;;;;;5065379;28;20067;-59
2024/03/04 01:56:17;;;;;;;2.65;1.60;;;;;;;;;;5070138;28;20488;-58
2024/03/04 01:58:48;;;;;;;1.65;1.20;;;;;;;;;;5076085;28;20052;-60
2024/03/04 02:01:17;;;;;;;2.15;1.42;;;;;;;;;;5065395;28;20049;-60
2024/03/04 02:03:46;;;;;;;2.40;1.50;;;;;;;;;;5066262;28;20052;-59
2024/03/04 02:06:15;;;;;;;3.65;1.40;;;;;;;;;;5071523;28;20056;-59
2024/03/04 02:08:43;;;;;;;2.08;1.70;;;;;;;;;;5078216;28;20485;-59
2024/03/04 02:11:12;;;;;;;2.42;1.63;;;;;;;;;;5070970;28;20052;-59
2024/03/04 02:13:42;;;;;;;2.88;1.75;;;;;;;;;;5076735;28;20045;-62
2024/03/04 02:16:10;;;;;;;2.35;1.63;;;;;;;;;;5064514;28;20489;-61
2024/03/04 02:18:39;;;;;;;1.52;1.30;;;;;;;;;;5071899;28;20063;-59
2024/03/04 02:21:08;;;;;;;1.23;1.13;;;;;;;;;;5074646;28;20041;-59
2024/03/04 02:23:38;;;;;;;2.92;1.40;;;;;;;;;;5062620;28;20114;-60
2024/03/04 02:26:06;;;;;;;1.20;1.00;;;;;;;;;;5078057;28;20098;-59
2024/03/04 02:28:34;;;;;;;1.30;1.20;;;;;;;;;;5079569;28;20048;-59
2024/03/04 02:31:05;;;;;;;2.38;1.42;;;;;;;;;;5079993;28;20082;-59
2024/03/04 02:33:34;;;;;;;1.63;1.20;;;;;;;;;;5072576;28;20402;-58
2024/03/04 02:36:02;;;;;;;1.85;1.30;;;;;;;;;;5072043;28;20134;-59
2024/03/04 02:38:31;;;;;;;2.20;1.15;;;;;;;;;;5072679;28;20118;-59
2024/03/04 02:41:03;;;;;;;1.45;1.20;;;;;;;;;;5077289;28;20056;-59
2024/03/04 02:43:32;;;;;;;2.78;1.20;;;;;;;;;;5069376;28;20048;-59
2024/03/04 02:46:01;;;;;;;1.45;1.35;;;;;;;;;;5069905;28;20055;-59
2024/03/04 02:48:29;;;;;;;1.77;1.33;;;;;;;;;;5075650;28;20136;-62
2024/03/04 02:50:57;;;;;;;3.35;1.30;;;;;;;;;;5072981;28;20052;-62
2024/03/04 02:53:26;;;;;;;1.45;1.30;;;;;;;;;;5065500;28;20045;-59
2024/03/04 02:55:54;;;;;;;1.50;1.10;;;;;;;;;;5073099;28;20052;-59
2024/03/04 02:58:24;;;;;;;3.15;1.27;;;;;;;;;;5073913;28;20098;-59
2024/03/04 03:00:52;;;;;;;2.03;1.25;;;;;;;;;;5049402;28;20037;-59
2024/03/04 03:03:22;;;;;;;3.70;1.50;;;;;;;;;;5046180;28;20609;-59
2024/03/04 03:05:50;;;;;;;2.38;1.50;;;;;;;;;;5043569;28;20045;-59
2024/03/04 03:08:19;;;;;;;1.77;1.42;;;;;;;;;;5047393;28;20144;-58
2024/03/04 03:10:47;;;;;;;2.13;1.63;;;;;;;;;;5036169;28;20575;-59
2024/03/04 03:13:16;;;;;;;2.05;1.40;;;;;;;;;;5044586;28;20142;-59
2024/03/04 03:15:46;;;;;;;1.85;1.50;;;;;;;;;;5042066;28;20058;-61
2024/03/04 03:18:17;;;;;;;2.60;1.40;;;;;;;;;;5042473;28;20502;-61
2024/03/04 03:20:45;;;;;;;1.50;1.17;;;;;;;;;;5043333;28;20045;-58
2024/03/04 03:23:14;;;;;;;2.05;1.35;;;;;;;;;;5043597;28;20041;-58
2024/03/04 03:25:42;;;;;;;2.38;1.63;;;;;;;;;;5045261;28;20053;-59
2024/03/04 03:28:11;;;;;;;2.78;1.50;;;;;;;;;;5047589;28;20445;-59
2024/03/04 03:30:40;;;;;;;2.33;1.42;;;;;;;;;;5046666;28;20060;-62
2024/03/04 03:33:11;;;;;;;2.40;1.33;;;;;;;;;;5049049;28;20037;-61
2024/03/04 03:35:39;;;;;;;2.25;1.58;;;;;;;;;;5048595;28;20049;-58
2024/03/04 03:38:08;;;;;;;1.92;1.45;;;;;;;;;;5047831;28;20110;-59
2024/03/04 03:40:36;;;;;;;2.30;1.30;;;;;;;;;;5048368;28;20107;-59
2024/03/04 03:43:05;;;;;;;2.38;1.70;;;;;;;;;;5044144;28;20049;-62
2024/03/04 03:45:33;;;;;;;2.55;1.40;;;;;;;;;;5050885;28;20140;-60
2024/03/04 03:48:02;;;;;;;2.15;1.20;;;;;;;;;;5050722;28;20118;-58
2024/03/04 03:50:31;;;;;;;3.03;1.67;;;;;;;;;;5066472;28;20122;-59
2024/03/04 03:53:00;;;;;;;2.08;1.20;;;;;;;;;;5066797;28;20072;-60
2024/03/04 03:55:28;;;;;;;1.58;1.38;;;;;;;;;;5068031;28;20087;-61
2024/03/04 03:57:56;;;;;;;1.75;1.60;;;;;;;;;;5069125;28;20048;-59
2024/03/04 04:00:26;;;;;;;3.35;1.42;;;;;;;;;;5057408;28;20112;-58
2024/03/04 04:02:58;;;;;;;1.73;1.30;;;;;;;;;;5046810;28;20139;-59
2024/03/04 04:05:27;;;;;;;3.58;1.40;;;;;;;;;;5045235;28;20052;-59
2024/03/04 04:07:57;;;;;;;1.67;1.50;;;;;;;;;;5045142;28;20603;-59
2024/03/04 04:10:26;;;;;;;2.78;1.40;;;;;;;;;;5057837;28;20052;-59
2024/03/04 04:12:55;;;;;;;4.38;1.45;;;;;;;;;;5070273;28;20076;-58
2024/03/04 04:15:23;;;;;;;2.00;1.30;;;;;;;;;;5069956;28;20417;-58
2024/03/04 04:17:56;;;;;;;2.38;1.23;;;;;;;;;;5065373;28;20049;-58
2024/03/04 04:20:27;;;;;;;3.50;1.52;;;;;;;;;;5060703;28;20048;-60
2024/03/04 04:22:56;;;;;;;3.00;1.38;;;;;;;;;;5062933;28;21681;-60
2024/03/04 04:25:25;;;;;;;2.90;1.30;;;;;;;;;;5069690;28;20044;-58
2024/03/04 04:27:53;;;;;;;2.70;1.33;;;;;;;;;;5069667;28;20110;-59
2024/03/04 04:30:21;;;;;;;2.10;1.17;;;;;;;;;;5069364;28;20098;-59
2024/03/04 04:32:49;;;;;;;2.20;1.42;;;;;;;;;;5067771;28;20623;-58
2024/03/04 04:35:17;;;;;;;1.65;1.27;;;;;;;;;;5065903;28;20456;-58
2024/03/04 04:37:46;;;;;;;3.47;1.45;;;;;;;;;;5065080;28;20494;-58
2024/03/04 04:40:20;;;;;;;2.58;1.60;;;;;;;;;;5054240;28;20060;-59
2024/03/04 04:42:48;;;;;;;2.03;1.42;;;;;;;;;;5044887;28;20084;-59
2024/03/04 04:45:17;;;;;;;3.15;1.48;;;;;;;;;;5050172;28;20595;-58
2024/03/04 04:47:46;;;;;;;3.72;1.90;;;;;;;;;;5054122;28;20041;-58
2024/03/04 04:50:14;;;;;;;3.33;1.55;;;;;;;;;;5047867;28;20460;-58
2024/03/04 04:52:43;;;;;;;2.10;1.65;;;;;;;;;;5047077;28;20098;-60
2024/03/04 04:55:11;;;;;;;2.63;2.03;;;;;;;;;;5060277;28;20057;-61
2024/03/04 04:57:46;;;;;;;3.15;2.13;;;;;;;;;;5061831;28;20135;-57
2024/03/04 05:00:15;;;;;;;3.15;2.25;;;;;;;;;;5055206;28;20096;-58
2024/03/04 05:02:43;;;;;;;3.80;2.03;;;;;;;;;;5058094;28;20041;-59
2024/03/04 05:05:12;;;;;;;6.53;2.85;;;;;;;;;;5041058;28;20057;-58
2024/03/04 05:07:41;;;;;;;4.88;2.00;;;;;;;;;;5045346;28;20060;-61
2024/03/04 05:10:09;;;;;;;6.40;2.65;;;;;;;;;;5058301;28;20048;-58
2024/03/04 05:12:38;;;;;;;3.78;2.53;;;;;;;;;;5057845;28;20088;-59
2024/03/04 05:15:08;;;;;;;6.82;2.70;;;;;;;;;;5052999;28;20506;-58
2024/03/04 05:17:37;;;;;;;4.47;2.58;;;;;;;;;;5048234;28;20155;-59
2024/03/04 05:20:07;;;;;;;4.00;2.63;;;;;;;;;;5063993;28;20079;-60
2024/03/04 05:22:35;;;;;;;6.00;2.55;;;;;;;;;;5061763;28;20049;-58
2024/03/04 05:25:05;;;;;;;3.55;2.63;;;;;;;;;;5082067;28;20109;-58
2024/03/04 05:27:34;;;;;;;5.28;3.00;;;;;;;;;;5059949;28;20107;-59
2024/03/04 05:30:02;;;;;;;4.60;3.10;;;;;;;;;;5055254;28;20085;-63
2024/03/04 05:32:32;;;;;;;4.57;2.97;;;;;;;;;;5068625;28;20056;-60
2024/03/04 05:35:00;;;;;;;5.18;3.40;;;;;;;;;;5068119;28;20110;-58
2024/03/04 05:37:29;;;;;;;6.15;3.47;;;;;;;;;;5066828;28;20151;-59
2024/03/04 05:39:57;;;;;;;5.13;3.17;;;;;;;;;;5057586;28;20425;-58
2024/03/04 05:42:25;;;;;;;5.47;3.10;;;;;;;;;;5062025;28;20052;-61
2024/03/04 05:44:54;;;;;;;6.07;3.70;;;;;;;;;;5067268;28;20044;-61
2024/03/04 05:47:22;;;;;;;6.38;3.60;;;;;;;;;;5068115;28;20122;-59
2024/03/04 05:49:52;;;;;;;6.75;4.05;;;;;;;;;;5066339;28;20040;-58
2024/03/04 05:52:20;;;;;;;6.28;3.95;;;;;;;;;;5058072;28;20059;-58
2024/03/04 05:54:49;;;;;;;7.13;3.75;;;;;;;;;;5063290;28;20431;-62
2024/03/04 05:57:17;;;;;;;6.30;3.53;;;;;;;;;;5064860;28;20067;-60
2024/03/04 05:59:45;;;;;;;8.23;3.92;;;;;;;;;;5060696;28;20060;-60
2024/03/04 06:02:14;;;;;;;7.13;3.95;;;;;;;;;;5059868;28;20452;-58
2024/03/04 06:04:42;;;;;;;6.47;4.53;;;;;;;;;;5064180;28;20064;-58
2024/03/04 06:07:12;;;;;;;8.35;4.82;;;;;;;;;;5066266;28;20460;-58
2024/03/04 06:09:41;;;;;;;10.55;4.38;;;;;;;;;;5066405;28;20055;-62
2024/03/04 06:12:09;;;;;;;7.85;4.07;;;;;;;;;;5062452;28;20076;-59
2024/03/04 06:14:38;;;;;;;10.15;4.40;;;;;;;;;;5067710;28;20060;-58
2024/03/04 06:17:06;;;;;;;7.57;4.60;;;;;;;;;;5064324;28;20049;-58
2024/03/04 06:19:35;;;;;;;10.07;5.10;;;;;;;;;;5062969;28;20072;-63
2024/03/04 06:22:04;;;;;;;7.47;4.82;;;;;;;;;;5055721;28;20049;-60
2024/03/04 06:24:41;;;;;;;8.45;5.15;;;;;;;;;;5066736;28;20048;-59
2024/03/04 06:27:10;;;;;;;12.25;6.45;;;;;;;;;;5068829;28;20434;-58
2024/03/04 06:29:38;;;;;;;9.63;5.95;;;;;;;;;;5061446;28;20044;-60
2024/03/04 06:32:07;;;;;;;11.52;5.82;;;;;;;;;;5079434;28;20048;-62
2024/03/04 06:34:35;;;;;;;11.13;6.57;;;;;;;;;;5075507;28;20471;-58
2024/03/04 06:37:04;;;;;;;12.48;6.20;;;;;;;;;;5067920;28;20036;-58
2024/03/04 06:39:33;;;;;;;14.05;6.60;;;;;;;;;;5076080;28;20052;-57
2024/03/04 06:42:04;;;;;;;12.45;6.22;;;;;;;;;;5075522;28;20151;-61
2024/03/04 06:44:32;;;;;;;11.32;6.43;;;;;;;;;;5070411;28;20056;-60
2024/03/04 06:47:00;;;;;;;14.00;6.45;;;;;;;;;;5068048;28;20136;-62
2024/03/04 06:49:29;;;;;;;13.20;6.93;;;;;;;;;;5072857;28;20049;-59
2024/03/04 06:51:57;;;;;;;11.15;6.60;;;;;;;;;;5062930;28;20123;-57
2024/03/04 06:54:26;;;;;;;12.63;7.00;;;;;;;;;;5074776;28;20098;-60
2024/03/04 06:56:54;;;;;;;11.88;7.03;;;;;;;;;;5072233;28;20080;-58
2024/03/04 06:59:24;;;;;;;14.85;7.45;;;;;;;;;;5078548;28;20052;-59
2024/03/04 07:01:52;;;;;;;12.75;7.35;;;;;;;;;;5073537;28;20060;-58
2024/03/04 07:04:21;;;;;;;13.45;6.85;;;;;;;;;;5076520;28;20143;-58
2024/03/04 07:06:49;;;;;;;15.38;7.47;;;;;;;;;;5068518;28;20127;-58
2024/03/04 07:09:17;;;;;;;16.20;7.80;;;;;;;;;;5074632;28;20040;-58
2024/03/04 07:11:46;;;;;;;12.70;6.82;;;;;;;;;;5077512;28;20048;-57
2024/03/04 07:14:14;;;;;;;16.27;8.48;;;;;;;;;;5083046;28;20060;-60
2024/03/04 07:16:44;;;;;;;13.70;7.57;;;;;;;;;;5072551;28;20057;-60
2024/03/04 07:19:12;;;;;;;15.15;7.90;;;;;;;;;;5079904;28;20589;-58
2024/03/04 07:21:41;;;;;;;14.52;8.25;;;;;;;;;;5072293;28;20060;-60
2024/03/04 07:24:09;;;;;;;15.48;7.80;;;;;;;;;;5076416;28;20048;-59
2024/03/04 07:26:38;;;;;;;13.48;7.68;;;;;;;;;;5076175;28;20056;-60
2024/03/04 07:29:07;;;;;;;14.63;8.18;;;;;;;;;;5072624;28;20102;-57
2024/03/04 07:31:46;;;;;;;14.02;7.97;;;;;;;;;;5082151;28;20059;-58
2024/03/04 07:34:15;;;;;;;16.13;9.38;;;;;;;;;;5072176;28;20444;-63
2024/03/04 07:36:43;;;;;;;13.13;7.18;;;;;;;;;;5072393;28;20044;-59
2024/03/04 07:39:12;;;;;;;17.02;8.68;;;;;;;;;;5066610;28;20139;-59
2024/03/04 07:41:40;;;;;;;12.85;8.40;;;;;;;;;;5080517;28;20105;-58
2024/03/04 07:44:10;;;;;;;16.23;8.02;;;;;;;;;;5075451;28;20044;-63
2024/03/04 07:46:38;;;;;;;13.23;7.72;;;;;;;;;;5070210;28;20045;-59
2024/03/04 07:49:11;;;;;;;15.13;8.13;;;;;;;;;;5069276;28;20037;-59
2024/03/04 07:51:40;;;;;;;15.00;8.43;;;;;;;;;;5068314;28;20282;-59
2024/03/04 07:54:08;;;;;;;17.73;9.00;;;;;;;;;;5068243;28;20041;-58
2024/03/04 07:56:36;;;;;;;16.35;8.65;;;;;;;;;;5070120;28;20526;-58
2024/03/04 07:59:05;;;;;;;13.85;8.18;;;;;;;;;;5062417;28;20379;-61
2024/03/04 08:01:33;;;;;;;15.85;8.65;;;;;;;;;;5068154;28;20671;-62
2024/03/04 08:04:01;;;;;;;15.75;9.15;;;;;;;;;;5067074;28;20044;-61
2024/03/04 08:06:32;;;;;;;16.55;8.55;;;;;;;;;;5068439;28;20052;-60
2024/03/04 08:09:01;;;;;;;13.70;8.05;;;;;;;;;;5070064;28;20045;-61
2024/03/04 08:11:29;;;;;;;14.43;8.52;;;;;;;;;;5070564;28;20520;-60
2024/03/04 08:13:58;;;;;;;16.15;8.57;;;;;;;;;;5058005;28;20127;-61
2024/03/04 08:16:26;;;;;;;18.05;9.50;;;;;;;;;;5069617;28;20122;-63
2024/03/04 08:18:54;;;;;;;15.25;9.13;;;;;;;;;;5067448;28;20053;-61
2024/03/04 08:21:23;;;;;;;14.77;8.43;;;;;;;;;;5065724;28;20053;-61
2024/03/04 08:23:53;;;;;;;14.50;8.15;;;;;;;;;;5070667;28;20144;-63
2024/03/04 08:26:22;;;;;;;20.58;9.15;;;;;;;;;;5069965;28;20055;-59
2024/03/04 08:28:54;;;;;;;18.27;8.88;;;;;;;;;;5069483;28;20131;-61
2024/03/04 08:31:23;;;;;;;14.55;8.48;;;;;;;;;;5070396;28;20048;-59
2024/03/04 08:33:51;;;;;;;15.80;9.20;;;;;;;;;;5067707;28;20048;-56
2024/03/04 08:36:21;;;;;;;17.90;9.48;;;;;;;;;;5066616;28;20102;-59
2024/03/04 08:38:50;;;;;;;19.63;9.23;;;;;;;;;;5066645;28;20052;-59
2024/03/04 08:41:20;;;;;;;14.18;7.78;;;;;;;;;;5066304;28;20049;-58
2024/03/04 08:43:50;;;;;;;18.15;8.73;;;;;;;;;;5066278;28;20120;-57
2024/03/04 08:46:18;;;;;;;16.65;9.10;;;;;;;;;;5065503;28;20045;-60
2024/03/04 08:48:47;;;;;;;17.58;8.27;;;;;;;;;;5063372;28;20061;-59
2024/03/04 08:51:17;;;;;;;17.95;8.95;;;;;;;;;;5068346;28;20036;-58
2024/03/04 08:53:46;;;;;;;14.75;7.90;;;;;;;;;;5069321;28;20044;-59
2024/03/04 08:56:14;;;;;;;13.73;8.15;;;;;;;;;;5068238;28;20113;-58
2024/03/04 08:58:44;;;;;;;15.95;8.88;;;;;;;;;;5068130;28;20485;-58
2024/03/04 09:01:13;;;;;;;15.45;8.75;;;;;;;;;;5064576;28;20055;-60
2024/03/04 09:03:41;;;;;;;17.20;9.43;;;;;;;;;;5067276;28;20044;-59
2024/03/04 09:06:15;;;;;;;13.93;8.23;;;;;;;;;;5062688;28;20044;-60
2024/03/04 09:08:44;;;;;;;16.80;8.93;;;;;;;;;;5064000;28;20409;-59
2024/03/04 09:11:12;;;;;;;14.73;7.97;;;;;;;;;;5066646;28;20448;-59
2024/03/04 09:13:41;;;;;;;15.48;7.78;;;;;;;;;;5069008;28;20044;-58
2024/03/04 09:16:11;;;;;;;14.50;7.95;;;;;;;;;;5068601;28;20048;-62
2024/03/04 09:18:40;;;;;;;14.55;8.32;;;;;;;;;;5061987;28;20051;-58
2024/03/04 09:21:09;;;;;;;14.43;8.13;;;;;;;;;;5064813;28;20041;-60
2024/03/04 09:23:40;;;;;;;15.20;9.00;;;;;;;;;;5069199;28;20057;-58
2024/03/04 09:26:09;;;;;;;15.27;8.25;;;;;;;;;;5068430;28;20041;-60
2024/03/04 09:28:37;;;;;;;19.70;8.23;;;;;;;;;;5060528;28;20052;-58
2024/03/04 09:31:06;;;;;;;15.68;8.65;;;;;;;;;;5062928;28;20045;-58
2024/03/04 09:33:36;;;;;;;15.43;8.27;;;;;;;;;;5066602;28;20122;-58
2024/03/04 09:36:05;;;;;;;15.40;8.65;;;;;;;;;;5066763;28;20059;-58
2024/03/04 09:38:33;;;;;;;14.70;8.20;;;;;;;;;;5063752;28;20914;-60
2024/03/04 09:41:03;;;;;;;15.95;8.68;;;;;;;;;;5064859;28;20106;-64
2024/03/04 09:43:33;;;;;;;15.00;8.15;;;;;;;;;;5067947;28;20163;-58
2024/03/04 09:46:03;;;;;;;15.07;8.18;;;;;;;;;;5068913;28;20056;-59
2024/03/04 09:48:33;;;;;;;14.82;8.20;;;;;;;;;;5064971;28;20049;-59
2024/03/04 09:51:04;;;;;;;15.52;8.35;;;;;;;;;;5063172;28;20566;-60
2024/03/04 09:53:33;;;;;;;13.05;7.57;;;;;;;;;;5061586;28;20110;-64
2024/03/04 09:56:01;;;;;;;12.77;7.90;;;;;;;;;;5067960;28;20467;-59
2024/03/04 09:58:31;;;;;;;14.48;8.43;;;;;;;;;;5063410;28;21005;-59
2024/03/04 10:01:00;;;;;;;13.05;8.20;;;;;;;;;;5065458;28;20052;-59
2024/03/04 10:03:29;;;;;;;14.27;7.85;;;;;;;;;;5063822;28;20044;-61
2024/03/04 10:05:57;;;;;;;12.45;6.97;;;;;;;;;;5064974;28;20056;-60
2024/03/04 10:08:27;;;;;;;14.52;8.02;;;;;;;;;;5066771;28;20044;-59
2024/03/04 10:10:55;;;;;;;11.88;7.32;;;;;;;;;;5065147;28;20045;-59
2024/03/04 10:13:24;;;;;;;17.63;7.45;;;;;;;;;;5064979;28;20129;-59
2024/03/04 10:15:53;;;;;;;14.95;8.18;;;;;;;;;;5064393;28;20373;-61
2024/03/04 10:18:21;;;;;;;15.05;8.02;;;;;;;;;;5065919;28;20048;-58
2024/03/04 10:20:54;;;;;;;14.82;8.15;;;;;;;;;;5064066;28;20125;-61
2024/03/04 10:23:23;;;;;;;15.45;8.40;;;;;;;;;;5069134;28;20068;-59
2024/03/04 10:26:07;;;;;;;15.18;7.32;;;;;;;;;;5071788;28;20044;-60
2024/03/04 10:28:40;;;;;;;13.30;7.65;;;;;;;;;;5068254;28;20044;-59
2024/03/04 10:31:09;;;;;;;13.32;7.72;;;;;;;;;;5068075;28;20052;-59
2024/03/04 10:33:38;;;;;;;14.98;7.88;;;;;;;;;;5063386;28;20067;-59
2024/03/04 10:36:20;;;;;;;12.52;7.70;;;;;;;;;;5070170;28;20127;-59
2024/03/04 10:38:49;;;;;;;19.23;7.75;;;;;;;;;;5066660;28;20044;-59
2024/03/04 10:41:18;;;;;;;15.02;8.13;;;;;;;;;;5072285;28;20113;-60
2024/03/04 10:43:48;;;;;;;15.60;8.48;;;;;;;;;;5072948;28;20049;-58
2024/03/04 10:46:18;;;;;;;10.68;6.68;;;;;;;;;;5073345;28;20406;-58
2024/03/04 10:48:47;;;;;;;19.02;7.97;;;;;;;;;;5071070;28;20048;-61
2024/03/04 10:51:16;;;;;;;15.77;7.43;;;;;;;;;;5070844;28;20070;-58
2024/03/04 10:53:45;;;;;;;12.98;7.20;;;;;;;;;;5071981;28;20063;-57
2024/03/04 10:56:15;;;;;;;11.48;6.80;;;;;;;;;;5067292;28;20048;-58
2024/03/04 10:58:44;;;;;;;12.95;7.68;;;;;;;;;;5071600;28;20121;-58
2024/03/04 11:01:18;;;;;;;16.85;7.10;;;;;;;;;;5070479;28;20234;-59
2024/03/04 11:03:49;;;;;;;14.30;8.05;;;;;;;;;;5069036;28;20305;-62
2024/03/04 11:06:20;;;;;;;14.73;7.63;;;;;;;;;;5066599;28;20069;-58
2024/03/04 11:08:50;;;;;;;12.75;6.65;;;;;;;;;;5070729;28;20106;-60
2024/03/04 11:11:20;;;;;;;13.18;7.93;;;;;;;;;;5072417;28;20059;-58
2024/03/04 11:13:54;;;;;;;12.95;7.90;;;;;;;;;;5068248;28;20425;-60
2024/03/04 11:16:23;;;;;;;;;;;;;;;;;;5065342;28;20052;-58
2024/03/04 11:18:57;;;;;;;14.23;6.90;;;;;;;;;;5068751;28;19925;-58
2024/03/04 11:21:27;;;;;;;13.60;7.47;;;;;;;;;;5066949;28;20056;-58
2024/03/04 11:23:55;;;;;;;13.10;7.20;;;;;;;;;;5069910;28;20040;-58
2024/03/04 11:26:24;;;;;;;11.57;7.15;;;;;;;;;;5071412;28;20076;-60
2024/03/04 11:28:53;;;;;;;13.52;7.63;;;;;;;;;;5068044;28;20106;-61
2024/03/04 11:31:28;;;;;;;11.82;7.03;;;;;;;;;;5065482;28;20040;-56
2024/03/04 11:34:02;;;;;;;13.25;7.97;;;;;;;;;;5065472;28;21086;-58
2024/03/04 11:36:32;;;;;;;13.13;7.40;;;;;;;;;;5071861;28;20044;-60
2024/03/04 11:39:04;;;;;;;14.90;7.38;;;;;;;;;;5066390;28;20102;-57
2024/03/04 11:41:40;;;;;;;11.60;6.93;;;;;;;;;;5071123;28;20052;-60
2024/03/04 11:44:09;;;;;;;12.02;7.18;;;;;;;;;;5071560;28;20102;-62
2024/03/04 11:46:40;;;;;;;11.15;6.63;;;;;;;;;;5067429;28;20514;-60
2024/03/04 11:49:27;;;;;;;12.95;7.78;;;;;;;;;;5064200;28;20482;-59
2024/03/04 11:52:02;;;;;;;12.32;6.13;;;;;;;;;;5070815;28;20120;-60
2024/03/04 11:54:32;;;;;;;12.05;7.18;;;;;;;;;;5067703;28;20060;-61
2024/03/04 11:57:00;;;;;;;13.00;7.18;;;;;;;;;;5068401;28;20040;-58
2024/03/04 11:59:29;;;;;;;13.75;7.75;;;;;;;;;;5065817;28;20098;-59
2024/03/04 12:01:57;;;;;;;15.52;8.27;;;;;;;;;;5067934;28;20444;-58
2024/03/04 12:04:29;;;;;;;15.10;7.45;;;;;;;;;;5067503;28;20076;-59
2024/03/04 12:06:58;;;;;;;11.63;6.72;;;;;;;;;;5068579;28;20048;-60
2024/03/04 12:09:26;;;;;;;13.13;7.43;;;;;;;;;;5069282;28;20052;-60
2024/03/04 12:12:16;;;;;;;10.25;6.15;;;;;;;;;;5067432;28;20053;-60
2024/03/04 12:14:44;;;;;;;11.68;6.45;;;;;;;;;;5064268;28;20040;-61
2024/03/04 12:17:13;;;;;;;12.02;6.50;;;;;;;;;;5064324;28;20723;-59
2024/03/04 12:19:53;;;;;;;10.48;6.88;;;;;;;;;;5067559;28;20131;-62
2024/03/04 12:22:26;;;;;;;13.10;7.10;;;;;;;;;;5068118;28;20121;-59
2024/03/04 12:25:01;;;;;;;14.70;7.40;;;;;;;;;;5065051;28;20059;-58
2024/03/04 12:27:30;;;;;;;12.45;7.00;;;;;;;;;;5070531;28;20432;-61
2024/03/04 12:30:11;;;;;;;14.15;7.00;;;;;;;;;;5068751;28;20097;-61
2024/03/04 12:32:40;;;;;;;14.02;7.78;;;;;;;;;;5062898;28;20052;-60
2024/03/04 12:35:17;;;;;;;12.82;6.85;;;;;;;;;;5067254;28;20493;-60
2024/03/04 12:37:47;;;;;;;14.65;7.15;;;;;;;;;;5069308;28;20049;-58
2024/03/04 12:40:16;;;;;;;11.43;6.93;;;;;;;;;;5063921;28;20052;-63
2024/03/04 12:42:45;;;;;;;11.23;6.28;;;;;;;;;;5068997;28;20040;-62
2024/03/04 12:45:13;;;;;;;10.38;6.03;;;;;;;;;;5068613;28;20389;-61
2024/03/04 12:47:42;;;;;;;12.13;7.38;;;;;;;;;;5062504;28;20105;-59
2024/03/04 12:50:11;;;;;;;11.10;6.65;;;;;;;;;;5065300;28;20490;-59
2024/03/04 12:52:41;;;;;;;11.75;6.82;;;;;;;;;;5068916;28;20067;-60
2024/03/04 12:55:16;;;;;;;13.27;7.00;;;;;;;;;;5064289;28;20053;-60
2024/03/04 12:57:45;;;;;;;13.52;6.82;;;;;;;;;;5058915;28;20518;-60
2024/03/04 13:00:14;;;;;;;13.10;6.88;;;;;;;;;;5069232;28;20052;-60
2024/03/04 13:02:43;;;;;;;12.38;6.53;;;;;;;;;;5066190;28;20056;-61
2024/03/04 13:05:11;;;;;;;13.98;7.07;;;;;;;;;;5059146;28;20060;-58
2024/03/04 13:07:40;;;;;;;14.43;6.82;;;;;;;;;;5065956;28;20572;-59
2024/03/04 13:10:11;;;;;;;11.27;6.20;;;;;;;;;;5066243;28;20051;-59
2024/03/04 13:12:40;;;;;;;12.23;6.35;;;;;;;;;;5068826;28;20060;-58
2024/03/04 13:15:10;;;;;;;13.35;6.70;;;;;;;;;;5069075;28;20044;-59
2024/03/04 13:17:39;;;;;;;13.63;7.13;;;;;;;;;;5060884;28;20048;-59
2024/03/04 13:20:09;;;;;;;13.23;6.55;;;;;;;;;;5059492;28;20059;-59
2024/03/04 13:22:38;;;;;;;11.40;5.72;;;;;;;;;;5067033;28;20091;-64
2024/03/04 13:25:07;;;;;;;14.93;6.97;;;;;;;;;;5063865;28;20098;-60
2024/03/04 13:27:37;;;;;;;12.90;7.00;;;;;;;;;;5063870;28;20135;-59
2024/03/04 13:30:07;;;;;;;10.75;6.40;;;;;;;;;;5062699;28;20048;-59
2024/03/04 13:32:35;;;;;;;9.35;5.75;;;;;;;;;;5066612;28;20501;-60
2024/03/04 13:35:04;;;;;;;10.40;6.07;;;;;;;;;;5068278;28;20213;-65
2024/03/04 13:37:32;;;;;;;10.75;6.15;;;;;;;;;;5068409;28;20454;-58
2024/03/04 13:40:01;;;;;;;10.40;6.15;;;;;;;;;;5066460;28;20083;-60
2024/03/04 13:42:30;;;;;;;11.90;5.97;;;;;;;;;;5067163;28;20139;-58
2024/03/04 13:44:59;;;;;;;9.65;5.63;;;;;;;;;;5068077;28;20090;-60
2024/03/04 13:47:28;;;;;;;11.75;6.50;;;;;;;;;;5067636;28;20044;-58
2024/03/04 13:49:56;;;;;;;11.15;6.35;;;;;;;;;;5066924;28;20068;-58
2024/03/04 13:52:25;;;;;;;11.18;5.72;;;;;;;;;;5068901;28;20040;-58
2024/03/04 13:54:53;;;;;;;9.68;5.72;;;;;;;;;;5064897;28;20071;-58
2024/03/04 13:57:22;;;;;;;12.05;6.05;;;;;;;;;;5066366;28;20581;-58
2024/03/04 13:59:50;;;;;;;9.20;5.50;;;;;;;;;;5066879;28;20036;-60
2024/03/04 14:02:20;;;;;;;9.25;5.57;;;;;;;;;;5066640;28;20418;-60
2024/03/04 14:04:49;;;;;;;13.60;5.55;;;;;;;;;;5064246;28;20036;-65
2024/03/04 14:07:17;;;;;;;10.23;5.07;;;;;;;;;;5064696;28;20066;-58
2024/03/04 14:09:46;;;;;;;10.85;5.45;;;;;;;;;;5065492;28;20283;-60
2024/03/04 14:12:14;;;;;;;12.52;5.65;;;;;;;;;;5059171;28;20105;-61
2024/03/04 14:14:42;;;;;;;10.75;5.72;;;;;;;;;;5065992;28;20142;-61
2024/03/04 14:17:11;;;;;;;10.57;5.80;;;;;;;;;;5060820;28;20079;-59
2024/03/04 14:19:41;;;;;;;10.25;5.32;;;;;;;;;;5061526;28;20052;-58
2024/03/04 14:22:09;;;;;;;10.75;6.22;;;;;;;;;;5068208;28;20138;-60
2024/03/04 14:24:37;;;;;;;11.18;5.57;;;;;;;;;;5064496;28;20055;-59
2024/03/04 14:27:06;;;;;;;11.82;6.18;;;;;;;;;;5067603;28;20537;-58
2024/03/04 14:29:35;;;;;;;10.15;5.53;;;;;;;;;;5062441;28;20044;-59
2024/03/04 14:32:04;;;;;;;12.02;6.63;;;;;;;;;;5069919;28;20052;-58
2024/03/04 14:34:32;;;;;;;8.23;5.43;;;;;;;;;;5069877;28;20390;-59
2024/03/04 14:37:02;;;;;;;11.00;5.93;;;;;;;;;;5066077;28;20570;-60
2024/03/04 14:39:30;;;;;;;11.50;6.47;;;;;;;;;;5064902;28;20059;-59
2024/03/04 14:41:59;;;;;;;10.93;6.18;;;;;;;;;;5065462;28;20106;-58
2024/03/04 14:44:27;;;;;;;10.38;5.60;;;;;;;;;;5066349;28;20075;-59
2024/03/04 14:46:56;;;;;;;9.52;5.65;;;;;;;;;;5063994;28;20117;-58
2024/03/04 14:49:25;;;;;;;11.13;6.28;;;;;;;;;;5060883;28;20516;-61